createdAt,value
2023-03-25T00:01:09.029Z,99490.72
2023-03-25T00:03:41.978Z,99553.72
2023-03-25T00:06:10.640Z,99547.13
2023-03-25T00:08:37.328Z,99550.25
2023-03-25T00:11:04.844Z,99514.06
2023-03-25T00:13:34.261Z,99518.22
2023-03-25T00:16:02.465Z,99554.88
2023-03-25T00:18:33.666Z,99510.81
2023-03-25T00:21:02.301Z,99510.22
2023-03-25T00:23:30.656Z,99549.94
2023-03-25T00:26:01.278Z,99513.59
2023-03-25T00:28:30.880Z,99555.34
2023-03-25T00:31:09.477Z,99478.44
2023-03-25T00:33:35.956Z,99481.28
2023-03-25T00:36:04.496Z,99506.69
2023-03-25T00:38:37.867Z,99539.81
2023-03-25T00:41:37.175Z,99543.44
2023-03-25T00:44:04.515Z,99522.28
2023-03-25T00:46:32.508Z,99553.81
2023-03-25T00:48:59.851Z,99502.31
2023-03-25T00:51:28.407Z,99493.09
2023-03-25T00:53:56.940Z,99562.69
2023-03-25T00:56:24.208Z,99427.03
2023-03-25T00:58:51.270Z,99541.06
2023-03-25T01:01:23.380Z,99561.25
2023-03-25T01:03:57.753Z,99564.75
2023-03-25T01:06:35.506Z,99564.81
2023-03-25T01:09:05.738Z,99548.56
2023-03-25T01:11:38.301Z,99548.19
2023-03-25T01:14:07.084Z,99519.56
2023-03-25T01:16:34.023Z,99514.06
2023-03-25T01:19:00.722Z,99510.69
2023-03-25T01:21:27.305Z,99543.25
2023-03-25T01:23:54.137Z,99553.88
2023-03-25T01:26:20.573Z,99550.94
2023-03-25T01:28:47.232Z,99551.94
2023-03-25T01:31:14.957Z,99545.31
2023-03-25T01:33:41.524Z,99539.59
2023-03-25T01:36:09.660Z,99530.50
2023-03-25T01:38:37.206Z,99545.81
2023-03-25T01:41:04.473Z,99543.66
2023-03-25T01:43:31.882Z,99504.97
2023-03-25T01:45:58.954Z,99527.78
2023-03-25T01:48:32.977Z,99534.00
2023-03-25T01:51:08.224Z,99372.47
2023-03-25T01:53:35.030Z,99497.69
2023-03-25T01:56:03.698Z,99529.47
2023-03-25T01:58:31.446Z,99525.03
2023-03-25T02:00:58.557Z,99475.44
2023-03-25T02:03:25.370Z,99535.91
2023-03-25T02:06:03.670Z,99509.38
2023-03-25T02:08:33.159Z,99501.38
2023-03-25T02:10:59.683Z,99524.19
2023-03-25T02:13:26.675Z,99516.03
2023-03-25T02:16:30.959Z,99517.38
2023-03-25T02:19:32.893Z,99378.50
2023-03-25T02:22:11.838Z,99517.91
2023-03-25T02:25:01.893Z,99518.09
2023-03-25T02:27:42.042Z,99522.81
2023-03-25T02:30:30.950Z,99514.16
2023-03-25T02:33:12.998Z,99521.75
2023-03-25T02:36:10.619Z,99519.81
2023-03-25T02:38:47.350Z,99509.09
2023-03-25T02:41:41.882Z,99504.63
2023-03-25T02:44:15.408Z,99497.22
2023-03-25T02:46:46.808Z,99512.88
2023-03-25T02:49:19.448Z,99457.09
2023-03-25T02:52:12.356Z,99525.53
2023-03-25T02:54:41.491Z,99500.38
2023-03-25T02:57:09.843Z,99504.16
2023-03-25T02:59:38.555Z,99511.38
2023-03-25T03:02:09.059Z,99502.31
2023-03-25T03:04:47.118Z,99497.91
2023-03-25T03:07:32.625Z,99484.69
2023-03-25T03:10:19.396Z,99503.19
2023-03-25T03:13:19.996Z,99499.13
2023-03-25T03:15:55.690Z,99508.19
2023-03-25T03:18:38.110Z,99506.31
2023-03-25T03:21:10.035Z,99494.06
2023-03-25T03:24:00.590Z,99499.13
2023-03-25T03:26:43.373Z,99493.75
2023-03-25T03:29:18.879Z,99475.78
2023-03-25T03:32:06.237Z,99491.38
2023-03-25T03:34:46.930Z,99500.25
2023-03-25T03:37:17.188Z,99490.06
2023-03-25T03:39:46.772Z,99467.97
2023-03-25T03:42:18.880Z,99516.03
2023-03-25T03:44:50.136Z,99492.75
2023-03-25T03:47:23.110Z,99440.41
2023-03-25T03:49:54.281Z,99465.13
2023-03-25T03:52:25.604Z,99463.25
2023-03-25T03:54:56.467Z,99485.88
2023-03-25T03:57:27.928Z,99505.44
2023-03-25T04:00:15.486Z,99502.38
2023-03-25T04:02:47.813Z,99515.06
2023-03-25T04:05:16.905Z,99510.59
2023-03-25T04:07:54.807Z,99486.66
2023-03-25T04:10:23.376Z,99524.00
2023-03-25T04:12:53.572Z,99514.22
2023-03-25T04:15:20.384Z,99533.47
2023-03-25T04:17:48.215Z,99531.78
2023-03-25T04:20:17.368Z,99519.22
2023-03-25T04:22:45.873Z,99510.47
2023-03-25T04:25:13.944Z,99495.69
2023-03-25T04:27:40.720Z,99511.69
2023-03-25T04:30:08.798Z,99480.63
2023-03-25T04:32:35.455Z,99507.09
2023-03-25T04:35:02.375Z,99502.53
2023-03-25T04:37:29.486Z,99517.66
2023-03-25T04:39:59.980Z,99486.63
2023-03-25T04:42:33.247Z,99474.22
2023-03-25T04:45:00.045Z,99512.81
2023-03-25T04:47:27.628Z,99491.31
2023-03-25T04:49:54.375Z,99511.22
2023-03-25T04:52:20.947Z,99512.41
2023-03-25T04:54:47.785Z,99503.44
2023-03-25T04:57:15.284Z,99515.59
2023-03-25T04:59:42.303Z,99488.06
2023-03-25T05:02:13.410Z,99477.25
2023-03-25T05:04:47.541Z,99514.66
2023-03-25T05:07:16.409Z,99471.25
2023-03-25T05:09:43.416Z,99466.69
2023-03-25T05:12:11.316Z,99486.72
2023-03-25T05:14:38.059Z,99467.53
2023-03-25T05:17:04.530Z,99489.56
2023-03-25T05:19:35.061Z,99448.19
2023-03-25T05:22:02.793Z,99473.78
2023-03-25T05:24:29.334Z,99494.38
2023-03-25T05:26:56.007Z,99491.91
2023-03-25T05:29:22.715Z,99500.72
2023-03-25T05:31:49.466Z,99500.59
2023-03-25T05:34:17.095Z,99499.28
2023-03-25T05:36:43.939Z,99513.50
2023-03-25T05:39:11.037Z,99503.00
2023-03-25T05:41:41.608Z,99374.56
2023-03-25T05:44:09.633Z,99500.34
2023-03-25T05:46:36.282Z,99506.53
2023-03-25T05:49:03.049Z,99504.06
2023-03-25T05:51:38.649Z,99513.56
2023-03-25T05:54:10.937Z,99511.38
2023-03-25T05:56:38.304Z,99497.25
2023-03-25T05:59:04.931Z,99512.91
2023-03-25T06:01:34.098Z,99529.88
2023-03-25T06:04:03.733Z,99517.81
2023-03-25T06:06:32.076Z,99531.34
2023-03-25T06:08:59.264Z,99519.81
2023-03-25T06:11:25.819Z,99506.28
2023-03-25T06:13:52.657Z,99523.31
2023-03-25T06:16:27.953Z,99530.41
2023-03-25T06:19:00.197Z,99507.56
2023-03-25T06:21:34.994Z,99515.28
2023-03-25T06:24:02.443Z,99520.88
2023-03-25T06:26:29.353Z,99498.97
2023-03-25T06:28:55.891Z,99527.25
2023-03-25T06:31:28.398Z,99512.72
2023-03-25T06:33:56.176Z,99531.91
2023-03-25T06:36:25.692Z,99539.84
2023-03-25T06:38:55.567Z,99529.88
2023-03-25T06:41:25.063Z,99508.44
2023-03-25T06:43:51.821Z,99493.19
2023-03-25T06:46:18.369Z,99523.69
2023-03-25T06:48:44.949Z,99513.84
2023-03-25T06:51:11.681Z,99523.09
2023-03-25T06:53:38.245Z,99500.00
2023-03-25T06:56:05.369Z,99519.28
2023-03-25T06:58:35.183Z,99536.69
2023-03-25T07:01:06.650Z,99524.69
2023-03-25T07:03:34.160Z,99542.09
2023-03-25T07:06:00.763Z,99529.59
2023-03-25T07:08:27.381Z,99524.94
2023-03-25T07:10:54.314Z,99496.25
2023-03-25T07:13:20.809Z,99535.28
2023-03-25T07:15:47.500Z,99538.56
2023-03-25T07:18:14.014Z,99537.53
2023-03-25T07:20:46.032Z,99486.41
2023-03-25T07:23:13.288Z,99538.31
2023-03-25T07:25:39.861Z,99532.22
2023-03-25T07:28:06.543Z,99549.34
2023-03-25T07:30:33.092Z,99555.97
2023-03-25T07:32:59.737Z,99506.41
2023-03-25T07:35:26.368Z,99538.44
2023-03-25T07:37:52.849Z,99518.47
2023-03-25T07:40:19.444Z,99544.16
2023-03-25T07:42:46.065Z,99548.50
2023-03-25T07:45:12.798Z,99518.47
2023-03-25T07:47:39.710Z,99541.59
2023-03-25T07:50:06.989Z,99509.91
2023-03-25T07:52:33.863Z,99552.31
2023-03-25T07:55:00.931Z,99510.53
2023-03-25T07:57:27.857Z,99528.56
2023-03-25T07:59:54.410Z,99542.38
2023-03-25T08:02:23.827Z,99504.72
2023-03-25T08:04:54.748Z,99522.75
2023-03-25T08:07:21.557Z,99546.63
2023-03-25T08:09:48.085Z,99546.09
2023-03-25T08:12:14.672Z,99549.69
2023-03-25T08:14:44.175Z,99513.81
2023-03-25T08:17:10.999Z,99577.50
2023-03-25T08:19:37.716Z,99546.47
2023-03-25T08:22:04.263Z,99581.69
2023-03-25T08:24:32.584Z,99556.16
2023-03-25T08:27:14.965Z,99574.31
2023-03-25T08:29:44.257Z,99574.22
2023-03-25T08:32:11.101Z,99595.72
2023-03-25T08:34:39.772Z,99543.22
2023-03-25T08:37:11.136Z,99579.72
2023-03-25T08:39:39.844Z,99569.34
2023-03-25T08:42:07.968Z,99531.28
2023-03-25T08:44:34.952Z,99541.09
2023-03-25T08:47:01.806Z,99586.28
2023-03-25T08:49:28.526Z,99549.53
2023-03-25T08:51:57.556Z,99524.31
2023-03-25T08:54:26.085Z,99533.28
2023-03-25T08:56:52.864Z,99568.66
2023-03-25T08:59:19.572Z,99546.75
2023-03-25T09:01:46.105Z,99558.22
2023-03-25T09:04:12.703Z,99578.69
2023-03-25T09:06:47.660Z,99579.31
2023-03-25T09:09:15.537Z,99578.47
2023-03-25T09:11:42.055Z,99587.69
2023-03-25T09:14:08.584Z,99554.66
2023-03-25T09:16:35.153Z,99528.94
2023-03-25T09:19:02.194Z,99591.53
2023-03-25T09:21:28.899Z,99555.03
2023-03-25T09:23:55.600Z,99543.84
2023-03-25T09:26:22.114Z,99570.13
2023-03-25T09:28:48.660Z,99540.94
2023-03-25T09:31:15.469Z,99544.75
2023-03-25T09:33:42.098Z,99572.41
2023-03-25T09:36:08.963Z,99573.63
2023-03-25T09:38:35.660Z,99547.38
2023-03-25T09:41:05.242Z,99565.84
2023-03-25T09:43:41.139Z,99579.09
2023-03-25T09:46:08.087Z,99552.53
2023-03-25T09:48:43.107Z,99517.53
2023-03-25T09:51:23.397Z,99581.03
2023-03-25T09:54:00.676Z,99554.38
2023-03-25T09:56:29.126Z,99449.66
2023-03-25T09:59:05.585Z,99569.59
2023-03-25T10:01:52.035Z,99538.31
2023-03-25T10:04:39.978Z,99571.88
2023-03-25T10:07:31.873Z,99586.06
2023-03-25T10:10:07.591Z,99583.03
2023-03-25T10:12:52.485Z,99597.22
2023-03-25T10:15:37.819Z,99580.28
2023-03-25T10:18:27.782Z,99577.06
2023-03-25T10:21:03.516Z,99583.50
2023-03-25T10:23:39.473Z,99583.88
2023-03-25T10:26:10.897Z,99589.28
2023-03-25T10:28:43.527Z,99584.41
2023-03-25T10:31:16.777Z,99580.66
2023-03-25T10:33:51.455Z,99580.13
2023-03-25T10:36:21.390Z,99585.66
2023-03-25T10:38:52.238Z,99533.66
2023-03-25T10:41:38.223Z,99546.03
2023-03-25T10:44:09.704Z,99560.59
2023-03-25T10:46:50.341Z,99537.84
2023-03-25T10:49:19.629Z,99546.03
2023-03-25T10:51:47.216Z,99561.91
2023-03-25T10:54:14.422Z,99552.78
2023-03-25T10:56:47.032Z,99535.59
2023-03-25T10:59:34.940Z,99581.59
2023-03-25T11:02:08.494Z,99574.91
2023-03-25T11:04:38.428Z,99553.81
2023-03-25T11:07:16.747Z,99604.16
2023-03-25T11:09:43.433Z,99616.81
2023-03-25T11:12:10.087Z,99614.06
2023-03-25T11:14:40.136Z,99590.13
2023-03-25T11:17:17.195Z,99625.59
2023-03-25T11:19:56.508Z,99588.06
2023-03-25T11:22:28.186Z,99605.63
2023-03-25T11:25:29.912Z,99489.63
2023-03-25T11:27:59.232Z,99599.41
2023-03-25T11:30:26.591Z,99579.91
2023-03-25T11:32:59.285Z,99584.63
2023-03-25T11:35:29.226Z,99607.78
2023-03-25T11:37:58.767Z,99595.59
2023-03-25T11:40:30.658Z,99488.53
2023-03-25T11:42:59.134Z,99573.25
2023-03-25T11:45:33.827Z,99596.06
2023-03-25T11:48:10.356Z,99583.22
2023-03-25T11:50:37.922Z,99580.81
2023-03-25T11:53:06.070Z,99590.81
2023-03-25T11:55:44.087Z,99594.97
2023-03-25T11:58:15.812Z,99578.25
2023-03-25T12:00:47.642Z,99574.88
2023-03-25T12:03:14.513Z,99568.66
2023-03-25T12:05:42.003Z,99572.72
2023-03-25T12:08:15.232Z,99578.28
2023-03-25T12:10:53.535Z,99593.66
2023-03-25T12:13:39.658Z,99594.00
2023-03-25T12:16:20.604Z,99584.81
2023-03-25T12:19:10.741Z,99551.50
2023-03-25T12:22:18.937Z,99610.03
2023-03-25T12:25:08.218Z,99566.69
2023-03-25T12:27:40.981Z,99581.66
2023-03-25T12:30:49.701Z,99571.31
2023-03-25T12:33:48.736Z,99580.25
2023-03-25T12:36:18.406Z,99588.03
2023-03-25T12:38:54.967Z,99593.59
2023-03-25T12:41:38.912Z,99583.66
2023-03-25T12:44:30.890Z,99609.50
2023-03-25T12:47:23.946Z,99593.56
2023-03-25T12:50:09.378Z,99576.47
2023-03-25T12:52:48.405Z,99553.97
2023-03-25T12:55:27.111Z,99587.41
2023-03-25T12:58:04.206Z,99584.56
2023-03-25T13:00:43.105Z,99580.31
2023-03-25T13:03:27.955Z,99576.19
2023-03-25T13:05:58.482Z,99533.50
2023-03-25T13:08:32.555Z,99549.19
2023-03-25T13:11:06.463Z,99580.00
2023-03-25T13:13:37.772Z,99554.63
2023-03-25T13:16:15.116Z,99569.31
2023-03-25T13:19:01.492Z,99569.03
2023-03-25T13:21:40.837Z,99489.34
2023-03-25T13:24:36.030Z,99554.47
2023-03-25T13:27:06.262Z,99546.69
2023-03-25T13:29:49.750Z,99558.66
2023-03-25T13:32:25.237Z,99594.00
2023-03-25T13:34:54.969Z,99540.16
2023-03-25T13:37:25.895Z,99562.97
2023-03-25T13:40:14.673Z,99541.69
2023-03-25T13:42:58.331Z,99550.06
2023-03-25T13:45:26.481Z,99527.81
2023-03-25T13:48:02.116Z,99526.59
2023-03-25T13:50:30.952Z,99524.25
2023-03-25T13:53:05.614Z,99543.66
2023-03-25T13:55:38.343Z,99493.25
2023-03-25T13:58:18.333Z,99582.59
2023-03-25T14:00:48.016Z,99573.97
2023-03-25T14:03:39.285Z,99584.06
2023-03-25T14:06:35.038Z,99516.72
2023-03-25T14:09:33.022Z,99566.44
2023-03-25T14:12:10.680Z,99551.91
2023-03-25T14:14:50.827Z,99520.94
2023-03-25T14:17:18.537Z,99571.97
2023-03-25T14:19:50.143Z,99555.84
2023-03-25T14:22:18.187Z,99560.97
2023-03-25T14:24:47.800Z,99538.00
2023-03-25T14:27:24.792Z,99543.34
2023-03-25T14:30:01.067Z,99540.00
2023-03-25T14:32:32.620Z,99593.63
2023-03-25T14:35:33.647Z,99574.63
2023-03-25T14:38:08.271Z,99583.97
2023-03-25T14:40:58.998Z,99587.66
2023-03-25T14:43:40.428Z,99605.34
2023-03-25T14:46:13.781Z,99612.56
2023-03-25T14:48:55.906Z,99604.44
2023-03-25T14:51:25.463Z,99604.44
2023-03-25T14:54:06.574Z,99606.00
2023-03-25T14:56:35.757Z,99584.41
2023-03-25T14:59:14.056Z,99564.94
2023-03-25T15:01:42.785Z,99628.47
2023-03-25T15:04:21.944Z,99611.19
2023-03-25T15:06:51.912Z,99578.88
2023-03-25T15:09:19.161Z,99593.56
2023-03-25T15:11:55.131Z,99610.88
2023-03-25T15:14:27.604Z,99606.34
2023-03-25T15:17:00.819Z,99608.19
2023-03-25T15:19:28.178Z,99611.53
2023-03-25T15:21:57.800Z,99613.56
2023-03-25T15:24:27.352Z,99593.22
2023-03-25T15:26:56.173Z,99595.28
2023-03-25T15:29:47.592Z,99571.97
2023-03-25T15:32:23.295Z,99618.03
2023-03-25T15:35:31.501Z,99622.19
2023-03-25T15:38:25.812Z,99604.53
2023-03-25T15:41:19.547Z,99613.72
2023-03-25T15:44:04.625Z,99626.03
2023-03-25T15:46:31.298Z,99615.16
2023-03-25T15:49:35.585Z,99614.91
2023-03-25T15:52:25.656Z,99596.78
2023-03-25T15:54:57.353Z,99609.09
2023-03-25T15:57:29.356Z,99591.06
2023-03-25T16:00:19.008Z,99602.09
2023-03-25T16:03:01.868Z,99576.88
2023-03-25T16:05:33.974Z,99592.75
2023-03-25T16:08:15.749Z,99587.31
2023-03-25T16:10:44.739Z,99585.72
2023-03-25T16:13:23.948Z,99586.84
2023-03-25T16:16:01.371Z,99589.94
2023-03-25T16:18:28.257Z,99597.34
2023-03-25T16:21:01.663Z,99587.44
2023-03-25T16:23:29.696Z,99590.28
2023-03-25T16:25:56.807Z,99597.88
2023-03-25T16:28:28.623Z,99606.03
2023-03-25T16:30:58.542Z,99600.78
2023-03-25T16:33:45.503Z,99566.44
2023-03-25T16:36:17.628Z,99596.97
2023-03-25T16:38:44.351Z,99602.06
2023-03-25T16:41:15.445Z,99614.50
2023-03-25T16:43:42.460Z,99603.16
2023-03-25T16:46:10.707Z,99608.25
2023-03-25T16:48:49.306Z,99621.06
2023-03-25T16:51:25.554Z,99606.94
2023-03-25T16:53:55.910Z,99615.56
2023-03-25T16:56:24.929Z,99617.44
2023-03-25T16:59:19.274Z,99624.97
2023-03-25T17:01:53.192Z,99621.00
2023-03-25T17:04:22.780Z,99621.31
2023-03-25T17:06:52.989Z,99624.03
2023-03-25T17:09:21.762Z,99593.19
2023-03-25T17:11:53.176Z,99634.50
2023-03-25T17:14:22.136Z,99627.78
2023-03-25T17:16:52.355Z,99627.38
2023-03-25T17:19:20.404Z,99614.94
2023-03-25T17:22:20.099Z,99648.16
2023-03-25T17:24:58.289Z,99650.84
2023-03-25T17:27:33.995Z,99661.31
2023-03-25T17:30:17.659Z,99655.25
2023-03-25T17:32:44.943Z,99608.13
2023-03-25T17:35:30.908Z,99674.00
2023-03-25T17:37:57.763Z,99662.84
2023-03-25T17:40:26.034Z,99615.41
2023-03-25T17:42:53.294Z,99623.72
2023-03-25T17:45:22.505Z,99621.72
2023-03-25T17:47:51.382Z,99667.94
2023-03-25T17:50:25.345Z,99678.06
2023-03-25T17:52:51.896Z,99682.69
2023-03-25T17:55:18.587Z,99693.16
2023-03-25T17:57:45.128Z,99679.91
2023-03-25T18:00:17.222Z,99691.91
2023-03-25T18:02:45.112Z,99677.38
2023-03-25T18:05:12.192Z,99687.34
2023-03-25T18:07:39.151Z,99699.59
2023-03-25T18:10:32.242Z,99707.19
2023-03-25T18:12:58.859Z,99662.72
2023-03-25T18:15:25.575Z,99670.03
2023-03-25T18:17:53.248Z,99669.22
2023-03-25T18:20:25.919Z,99641.81
2023-03-25T18:22:54.671Z,99676.78
2023-03-25T18:25:22.406Z,99684.34
2023-03-25T18:27:53.814Z,99698.59
2023-03-25T18:30:31.857Z,99724.41
2023-03-25T18:32:58.451Z,99701.69
2023-03-25T18:35:25.687Z,99724.19
2023-03-25T18:37:52.674Z,99739.09
2023-03-25T18:40:27.153Z,99755.59
2023-03-25T18:42:56.967Z,99750.13
2023-03-25T18:45:24.941Z,99745.56
2023-03-25T18:47:52.632Z,99736.31
2023-03-25T18:50:37.618Z,99730.38
2023-03-25T18:53:05.692Z,99727.28
2023-03-25T18:55:34.032Z,99734.81
2023-03-25T18:58:00.933Z,99766.09
2023-03-25T19:00:31.100Z,99771.25
2023-03-25T19:05:25.333Z,99797.41
2023-03-25T19:07:52.679Z,99795.69
2023-03-25T19:10:28.743Z,99789.69
2023-03-25T19:12:55.902Z,99789.81
2023-03-25T19:15:26.785Z,99768.25
2023-03-25T19:18:03.370Z,99810.78
2023-03-25T19:20:33.635Z,99805.13
2023-03-25T19:23:01.181Z,99800.13
2023-03-25T19:25:28.203Z,99825.56
2023-03-25T19:27:56.096Z,99813.56
2023-03-25T19:30:24.177Z,99824.56
2023-03-25T19:32:53.898Z,99826.78
2023-03-25T19:35:21.541Z,99818.81
2023-03-25T19:37:50.801Z,99776.41
2023-03-25T19:40:24.680Z,99805.28
2023-03-25T19:42:54.336Z,99824.56
2023-03-25T19:45:21.253Z,99820.94
2023-03-25T19:47:48.222Z,99852.34
2023-03-25T19:50:18.943Z,99841.69
2023-03-25T19:52:47.632Z,99850.47
2023-03-25T19:55:15.120Z,99850.78
2023-03-25T19:57:42.907Z,99823.91
2023-03-25T20:00:15.172Z,99834.66
2023-03-25T20:02:52.694Z,99839.50
2023-03-25T20:05:21.769Z,99832.09
2023-03-25T20:07:50.930Z,99841.03
2023-03-25T20:10:20.610Z,99822.84
2023-03-25T20:12:49.015Z,99861.59
2023-03-25T20:15:17.427Z,99865.56
2023-03-25T20:17:44.053Z,99836.66
2023-03-25T20:20:12.411Z,99851.91
2023-03-25T20:22:39.508Z,99844.88
2023-03-25T20:25:09.015Z,99824.00
2023-03-25T20:27:35.755Z,99826.44
2023-03-25T20:30:03.751Z,99837.50
2023-03-25T20:32:40.038Z,99838.97
2023-03-25T20:35:10.266Z,99836.84
2023-03-25T20:37:38.600Z,99872.38
2023-03-25T20:40:11.060Z,99819.84
2023-03-25T20:42:39.482Z,99868.03
2023-03-25T20:45:06.703Z,99832.28
2023-03-25T20:47:33.366Z,99841.50
2023-03-25T20:50:00.027Z,99844.72
2023-03-25T20:52:28.861Z,99837.41
2023-03-25T20:54:55.610Z,99806.56
2023-03-25T20:57:22.638Z,99851.63
2023-03-25T20:59:49.185Z,99846.06
2023-03-25T21:02:17.036Z,99849.31
2023-03-25T21:04:43.634Z,99862.50
2023-03-25T21:07:11.371Z,99866.47
2023-03-25T21:09:38.136Z,99832.16
2023-03-25T21:12:05.088Z,99848.81
2023-03-25T21:14:31.636Z,99831.50
2023-03-25T21:16:58.419Z,99848.28
2023-03-25T21:19:25.162Z,99811.44
2023-03-25T21:21:51.878Z,99840.66
2023-03-25T21:24:21.517Z,99858.72
2023-03-25T21:26:49.120Z,99817.63
2023-03-25T21:29:15.648Z,99852.03
2023-03-25T21:31:42.534Z,99871.00
2023-03-25T21:34:09.886Z,99817.31
2023-03-25T21:36:36.674Z,99868.81
2023-03-25T21:39:06.820Z,99854.28
2023-03-25T21:41:33.767Z,99867.63
2023-03-25T21:44:00.667Z,99843.81
2023-03-25T21:46:27.850Z,99869.31
2023-03-25T21:48:58.233Z,99860.09
2023-03-25T21:51:26.566Z,99866.78
2023-03-25T21:53:53.217Z,99864.00
2023-03-25T21:56:25.003Z,99869.91
2023-03-25T21:58:52.420Z,99879.59
2023-03-25T22:01:28.377Z,99868.63
2023-03-25T22:03:57.296Z,99879.31
2023-03-25T22:06:26.671Z,99879.78
2023-03-25T22:08:53.687Z,99882.34
2023-03-25T22:11:24.101Z,99872.44
2023-03-25T22:13:51.756Z,99884.72
2023-03-25T22:16:20.605Z,99882.63
2023-03-25T22:18:47.990Z,99880.06
2023-03-25T22:21:17.539Z,99885.69
2023-03-25T22:23:46.199Z,99894.09
2023-03-25T22:26:14.561Z,99867.38
2023-03-25T22:28:41.548Z,99857.97
2023-03-25T22:31:16.343Z,99896.63
2023-03-25T22:33:43.787Z,99899.44
2023-03-25T22:36:15.560Z,99904.16
2023-03-25T22:38:48.353Z,99901.59
2023-03-25T22:41:16.655Z,99842.56
2023-03-25T22:43:45.330Z,99912.94
2023-03-25T22:46:12.309Z,99917.22
2023-03-25T22:48:39.353Z,99926.41
2023-03-25T22:51:11.647Z,99913.06
2023-03-25T22:53:38.952Z,99864.69
2023-03-25T22:56:06.504Z,99925.47
2023-03-25T22:58:33.512Z,99920.78
2023-03-25T23:01:04.863Z,99904.56
2023-03-25T23:03:31.626Z,99884.03
2023-03-25T23:06:01.135Z,99928.81
2023-03-25T23:08:30.097Z,99923.63
2023-03-25T23:11:03.123Z,99939.16
2023-03-25T23:13:30.448Z,99936.47
2023-03-25T23:16:02.120Z,99932.47
2023-03-25T23:18:28.863Z,99929.03
2023-03-25T23:20:56.265Z,99938.97
2023-03-25T23:23:24.469Z,99901.78
2023-03-25T23:26:03.661Z,99912.50
2023-03-25T23:28:34.355Z,99939.34
2023-03-25T23:31:02.001Z,99944.16
2023-03-25T23:33:29.242Z,99951.41
2023-03-25T23:36:00.667Z,99947.50
2023-03-25T23:38:27.868Z,99928.81
2023-03-25T23:41:02.210Z,99952.28
2023-03-25T23:43:29.198Z,99949.16
2023-03-25T23:45:56.317Z,99949.50
2023-03-25T23:48:24.416Z,99935.09
2023-03-25T23:50:51.428Z,99928.59
2023-03-25T23:53:18.354Z,99950.19
2023-03-25T23:55:46.098Z,99944.75
2023-03-25T23:58:13.255Z,99921.00
